sensor_id;sensor_type;location;lat;lon;timestamp;P1;durP1;ratioP1;P2;durP2;ratioP2
55328;SDS011;41205;44.264;19.884;2022-12-29T00:01:55;47.40;;;31.17;;
55328;SDS011;41205;44.264;19.884;2022-12-29T00:04:22;96.88;;;62.38;;
55328;SDS011;41205;44.264;19.884;2022-12-29T00:06:47;61.95;;;35.67;;
55328;SDS011;41205;44.264;19.884;2022-12-29T00:09:14;51.63;;;33.33;;
55328;SDS011;41205;44.264;19.884;2022-12-29T00:11:41;41.97;;;24.98;;
55328;SDS011;41205;44.264;19.884;2022-12-29T00:14:10;49.38;;;30.73;;
55328;SDS011;41205;44.264;19.884;2022-12-29T00:16:55;22.75;;;13.57;;
55328;SDS011;41205;44.264;19.884;2022-12-29T00:19:21;31.92;;;20.25;;
55328;SDS011;41205;44.264;19.884;2022-12-29T00:22:08;73.13;;;46.33;;
55328;SDS011;41205;44.264;19.884;2022-12-29T00:24:54;137.00;;;83.50;;
55328;SDS011;41205;44.264;19.884;2022-12-29T00:27:38;89.47;;;54.38;;
55328;SDS011;41205;44.264;19.884;2022-12-29T00:30:23;42.65;;;27.55;;
55328;SDS011;41205;44.264;19.884;2022-12-29T00:33:20;39.88;;;27.73;;
55328;SDS011;41205;44.264;19.884;2022-12-29T00:36:14;48.38;;;30.20;;
55328;SDS011;41205;44.264;19.884;2022-12-29T00:38:50;54.00;;;32.83;;
55328;SDS011;41205;44.264;19.884;2022-12-29T00:41:39;81.38;;;46.67;;
55328;SDS011;41205;44.264;19.884;2022-12-29T00:44:23;45.03;;;27.90;;
55328;SDS011;41205;44.264;19.884;2022-12-29T00:46:49;55.53;;;32.45;;
55328;SDS011;41205;44.264;19.884;2022-12-29T00:49:15;39.92;;;27.77;;
55328;SDS011;41205;44.264;19.884;2022-12-29T00:52:06;46.70;;;26.38;;
55328;SDS011;41205;44.264;19.884;2022-12-29T00:54:34;113.78;;;69.07;;
55328;SDS011;41205;44.264;19.884;2022-12-29T00:57:01;112.60;;;69.05;;
55328;SDS011;41205;44.264;19.884;2022-12-29T00:59:28;106.07;;;62.20;;
55328;SDS011;41205;44.264;19.884;2022-12-29T01:01:54;71.65;;;44.85;;
55328;SDS011;41205;44.264;19.884;2022-12-29T01:04:21;56.40;;;36.55;;
55328;SDS011;41205;44.264;19.884;2022-12-29T01:06:48;59.00;;;37.30;;
55328;SDS011;41205;44.264;19.884;2022-12-29T01:09:15;72.25;;;43.75;;
55328;SDS011;41205;44.264;19.884;2022-12-29T01:12:00;82.88;;;50.20;;
55328;SDS011;41205;44.264;19.884;2022-12-29T01:14:26;43.38;;;26.88;;
55328;SDS011;41205;44.264;19.884;2022-12-29T01:16:52;51.22;;;31.38;;
55328;SDS011;41205;44.264;19.884;2022-12-29T01:19:18;30.73;;;19.85;;
55328;SDS011;41205;44.264;19.884;2022-12-29T01:21:45;33.85;;;21.95;;
55328;SDS011;41205;44.264;19.884;2022-12-29T01:24:11;45.72;;;28.60;;
55328;SDS011;41205;44.264;19.884;2022-12-29T01:26:37;35.92;;;23.33;;
55328;SDS011;41205;44.264;19.884;2022-12-29T01:29:02;58.65;;;31.00;;
55328;SDS011;41205;44.264;19.884;2022-12-29T01:31:28;51.83;;;29.00;;
55328;SDS011;41205;44.264;19.884;2022-12-29T01:33:54;50.33;;;30.50;;
55328;SDS011;41205;44.264;19.884;2022-12-29T01:36:20;36.47;;;25.75;;
55328;SDS011;41205;44.264;19.884;2022-12-29T01:38:45;37.15;;;24.02;;
55328;SDS011;41205;44.264;19.884;2022-12-29T01:41:12;37.40;;;20.50;;
55328;SDS011;41205;44.264;19.884;2022-12-29T01:43:44;32.03;;;18.10;;
55328;SDS011;41205;44.264;19.884;2022-12-29T01:46:15;46.75;;;25.55;;
55328;SDS011;41205;44.264;19.884;2022-12-29T01:51:33;43.35;;;27.27;;
55328;SDS011;41205;44.264;19.884;2022-12-29T01:54:04;72.20;;;46.03;;
55328;SDS011;41205;44.264;19.884;2022-12-29T01:56:34;58.42;;;35.53;;
55328;SDS011;41205;44.264;19.884;2022-12-29T01:59:02;84.05;;;44.90;;
55328;SDS011;41205;44.264;19.884;2022-12-29T02:01:31;59.10;;;37.47;;
55328;SDS011;41205;44.264;19.884;2022-12-29T02:03:57;70.47;;;42.38;;
55328;SDS011;41205;44.264;19.884;2022-12-29T02:06:26;39.78;;;25.92;;
55328;SDS011;41205;44.264;19.884;2022-12-29T02:08:56;50.75;;;25.48;;
55328;SDS011;41205;44.264;19.884;2022-12-29T02:11:23;43.13;;;19.63;;
55328;SDS011;41205;44.264;19.884;2022-12-29T02:13:52;34.60;;;22.80;;
55328;SDS011;41205;44.264;19.884;2022-12-29T02:16:33;49.95;;;30.90;;
55328;SDS011;41205;44.264;19.884;2022-12-29T02:22:17;95.93;;;52.42;;
55328;SDS011;41205;44.264;19.884;2022-12-29T02:33:21;42.88;;;28.33;;
55328;SDS011;41205;44.264;19.884;2022-12-29T02:36:01;44.72;;;26.25;;
55328;SDS011;41205;44.264;19.884;2022-12-29T02:46:58;46.03;;;28.08;;
55328;SDS011;41205;44.264;19.884;2022-12-29T02:49:34;46.15;;;27.95;;
55328;SDS011;41205;44.264;19.884;2022-12-29T02:52:11;26.73;;;15.95;;
55328;SDS011;41205;44.264;19.884;2022-12-29T02:54:55;23.17;;;14.77;;
55328;SDS011;41205;44.264;19.884;2022-12-29T02:59:56;24.58;;;14.93;;
55328;SDS011;41205;44.264;19.884;2022-12-29T03:11:03;25.67;;;15.70;;
55328;SDS011;41205;44.264;19.884;2022-12-29T03:13:52;22.23;;;14.63;;
55328;SDS011;41205;44.264;19.884;2022-12-29T03:16:46;22.92;;;13.27;;
55328;SDS011;41205;44.264;19.884;2022-12-29T03:19:25;19.15;;;12.77;;
55328;SDS011;41205;44.264;19.884;2022-12-29T03:22:02;9.70;;;6.15;;
55328;SDS011;41205;44.264;19.884;2022-12-29T03:24:49;15.70;;;9.50;;
55328;SDS011;41205;44.264;19.884;2022-12-29T03:27:25;11.48;;;7.47;;
55328;SDS011;41205;44.264;19.884;2022-12-29T03:29:57;15.20;;;9.23;;
55328;SDS011;41205;44.264;19.884;2022-12-29T03:32:28;12.68;;;8.35;;
55328;SDS011;41205;44.264;19.884;2022-12-29T03:35:16;22.33;;;12.13;;
55328;SDS011;41205;44.264;19.884;2022-12-29T03:40:45;18.60;;;10.50;;
55328;SDS011;41205;44.264;19.884;2022-12-29T03:43:20;24.58;;;13.57;;
55328;SDS011;41205;44.264;19.884;2022-12-29T03:45:46;23.98;;;13.30;;
55328;SDS011;41205;44.264;19.884;2022-12-29T03:48:13;14.93;;;10.57;;
55328;SDS011;41205;44.264;19.884;2022-12-29T03:50:39;26.40;;;15.68;;
55328;SDS011;41205;44.264;19.884;2022-12-29T03:53:05;23.92;;;13.63;;
55328;SDS011;41205;44.264;19.884;2022-12-29T03:55:31;19.85;;;12.85;;
55328;SDS011;41205;44.264;19.884;2022-12-29T03:57:57;16.40;;;9.82;;
55328;SDS011;41205;44.264;19.884;2022-12-29T04:00:22;18.60;;;11.77;;
55328;SDS011;41205;44.264;19.884;2022-12-29T04:02:48;26.33;;;19.40;;
55328;SDS011;41205;44.264;19.884;2022-12-29T04:05:14;23.05;;;13.68;;
55328;SDS011;41205;44.264;19.884;2022-12-29T04:07:39;36.25;;;20.70;;
55328;SDS011;41205;44.264;19.884;2022-12-29T04:10:05;22.10;;;13.48;;
55328;SDS011;41205;44.264;19.884;2022-12-29T04:12:31;16.50;;;10.88;;
55328;SDS011;41205;44.264;19.884;2022-12-29T04:14:57;17.55;;;11.43;;
55328;SDS011;41205;44.264;19.884;2022-12-29T04:17:22;16.58;;;10.75;;
55328;SDS011;41205;44.264;19.884;2022-12-29T04:19:48;20.30;;;11.90;;
55328;SDS011;41205;44.264;19.884;2022-12-29T04:22:14;15.35;;;9.43;;
55328;SDS011;41205;44.264;19.884;2022-12-29T04:24:39;19.48;;;11.57;;
55328;SDS011;41205;44.264;19.884;2022-12-29T04:27:05;17.05;;;11.82;;
55328;SDS011;41205;44.264;19.884;2022-12-29T04:29:31;19.95;;;11.13;;
55328;SDS011;41205;44.264;19.884;2022-12-29T04:31:56;19.52;;;10.48;;
55328;SDS011;41205;44.264;19.884;2022-12-29T04:34:22;235.85;;;112.75;;
55328;SDS011;41205;44.264;19.884;2022-12-29T04:36:48;31.45;;;18.77;;
55328;SDS011;41205;44.264;19.884;2022-12-29T04:39:13;23.83;;;13.40;;
55328;SDS011;41205;44.264;19.884;2022-12-29T04:41:39;55.08;;;32.17;;
55328;SDS011;41205;44.264;19.884;2022-12-29T04:44:05;34.15;;;20.40;;
55328;SDS011;41205;44.264;19.884;2022-12-29T04:46:30;25.13;;;13.82;;
55328;SDS011;41205;44.264;19.884;2022-12-29T04:48:56;35.33;;;20.42;;
55328;SDS011;41205;44.264;19.884;2022-12-29T04:51:22;21.45;;;13.43;;
55328;SDS011;41205;44.264;19.884;2022-12-29T04:53:47;19.05;;;10.05;;
55328;SDS011;41205;44.264;19.884;2022-12-29T04:56:13;14.98;;;9.30;;
55328;SDS011;41205;44.264;19.884;2022-12-29T04:58:39;14.98;;;8.77;;
55328;SDS011;41205;44.264;19.884;2022-12-29T05:01:04;18.88;;;12.55;;
55328;SDS011;41205;44.264;19.884;2022-12-29T05:03:30;21.90;;;14.85;;
55328;SDS011;41205;44.264;19.884;2022-12-29T05:05:56;17.23;;;11.10;;
55328;SDS011;41205;44.264;19.884;2022-12-29T05:08:22;14.73;;;9.30;;
55328;SDS011;41205;44.264;19.884;2022-12-29T05:10:50;17.83;;;10.18;;
55328;SDS011;41205;44.264;19.884;2022-12-29T05:13:16;18.55;;;14.10;;
55328;SDS011;41205;44.264;19.884;2022-12-29T05:15:47;13.88;;;9.32;;
55328;SDS011;41205;44.264;19.884;2022-12-29T05:18:16;17.08;;;10.00;;
55328;SDS011;41205;44.264;19.884;2022-12-29T05:20:42;18.55;;;10.02;;
55328;SDS011;41205;44.264;19.884;2022-12-29T05:23:08;16.75;;;10.48;;
55328;SDS011;41205;44.264;19.884;2022-12-29T05:25:34;49.75;;;23.52;;
55328;SDS011;41205;44.264;19.884;2022-12-29T05:27:59;18.60;;;11.15;;
55328;SDS011;41205;44.264;19.884;2022-12-29T05:30:25;18.30;;;10.38;;
55328;SDS011;41205;44.264;19.884;2022-12-29T05:32:51;14.32;;;7.72;;
55328;SDS011;41205;44.264;19.884;2022-12-29T05:35:17;17.75;;;10.20;;
55328;SDS011;41205;44.264;19.884;2022-12-29T05:37:42;19.83;;;9.73;;
55328;SDS011;41205;44.264;19.884;2022-12-29T05:40:08;15.55;;;10.00;;
55328;SDS011;41205;44.264;19.884;2022-12-29T05:42:34;17.48;;;10.25;;
55328;SDS011;41205;44.264;19.884;2022-12-29T05:45:00;14.50;;;10.18;;
55328;SDS011;41205;44.264;19.884;2022-12-29T05:47:26;18.67;;;10.82;;
55328;SDS011;41205;44.264;19.884;2022-12-29T05:49:51;17.38;;;11.98;;
55328;SDS011;41205;44.264;19.884;2022-12-29T05:52:17;14.23;;;8.88;;
55328;SDS011;41205;44.264;19.884;2022-12-29T05:54:43;13.38;;;9.57;;
55328;SDS011;41205;44.264;19.884;2022-12-29T05:57:08;15.23;;;9.35;;
55328;SDS011;41205;44.264;19.884;2022-12-29T05:59:34;16.52;;;10.48;;
55328;SDS011;41205;44.264;19.884;2022-12-29T06:02:00;22.17;;;12.20;;
55328;SDS011;41205;44.264;19.884;2022-12-29T06:04:26;32.17;;;18.88;;
55328;SDS011;41205;44.264;19.884;2022-12-29T06:06:51;123.35;;;78.70;;
55328;SDS011;41205;44.264;19.884;2022-12-29T06:09:17;23.50;;;14.57;;
55328;SDS011;41205;44.264;19.884;2022-12-29T06:11:43;24.13;;;14.55;;
55328;SDS011;41205;44.264;19.884;2022-12-29T06:14:09;22.63;;;15.35;;
55328;SDS011;41205;44.264;19.884;2022-12-29T06:16:34;17.95;;;11.65;;
55328;SDS011;41205;44.264;19.884;2022-12-29T06:19:01;18.23;;;15.05;;
55328;SDS011;41205;44.264;19.884;2022-12-29T06:21:26;15.75;;;9.70;;
55328;SDS011;41205;44.264;19.884;2022-12-29T06:23:52;15.52;;;11.13;;
55328;SDS011;41205;44.264;19.884;2022-12-29T06:26:18;12.45;;;8.70;;
55328;SDS011;41205;44.264;19.884;2022-12-29T06:28:44;19.77;;;14.88;;
55328;SDS011;41205;44.264;19.884;2022-12-29T06:31:10;21.45;;;17.95;;
55328;SDS011;41205;44.264;19.884;2022-12-29T06:33:36;15.65;;;10.35;;
55328;SDS011;41205;44.264;19.884;2022-12-29T06:36:02;19.30;;;13.95;;
55328;SDS011;41205;44.264;19.884;2022-12-29T06:38:28;32.65;;;27.83;;
55328;SDS011;41205;44.264;19.884;2022-12-29T06:40:54;34.85;;;31.38;;
55328;SDS011;41205;44.264;19.884;2022-12-29T06:43:19;19.88;;;11.55;;
55328;SDS011;41205;44.264;19.884;2022-12-29T06:45:45;22.33;;;15.02;;
55328;SDS011;41205;44.264;19.884;2022-12-29T06:48:11;20.25;;;13.48;;
55328;SDS011;41205;44.264;19.884;2022-12-29T06:50:36;17.83;;;14.02;;
55328;SDS011;41205;44.264;19.884;2022-12-29T06:53:02;19.33;;;15.88;;
55328;SDS011;41205;44.264;19.884;2022-12-29T06:55:28;21.88;;;19.60;;
55328;SDS011;41205;44.264;19.884;2022-12-29T06:57:57;24.55;;;22.35;;
55328;SDS011;41205;44.264;19.884;2022-12-29T07:00:24;20.92;;;15.32;;
55328;SDS011;41205;44.264;19.884;2022-12-29T07:02:50;26.20;;;19.98;;
55328;SDS011;41205;44.264;19.884;2022-12-29T07:05:16;39.83;;;26.83;;
55328;SDS011;41205;44.264;19.884;2022-12-29T07:07:42;31.42;;;23.98;;
55328;SDS011;41205;44.264;19.884;2022-12-29T07:10:07;38.25;;;25.63;;
55328;SDS011;41205;44.264;19.884;2022-12-29T07:12:33;24.38;;;16.42;;
55328;SDS011;41205;44.264;19.884;2022-12-29T07:14:59;32.28;;;19.35;;
55328;SDS011;41205;44.264;19.884;2022-12-29T07:17:24;49.40;;;33.95;;
55328;SDS011;41205;44.264;19.884;2022-12-29T07:19:50;45.53;;;33.47;;
55328;SDS011;41205;44.264;19.884;2022-12-29T07:22:16;82.05;;;57.70;;
55328;SDS011;41205;44.264;19.884;2022-12-29T07:24:41;61.30;;;42.97;;
55328;SDS011;41205;44.264;19.884;2022-12-29T07:27:08;36.05;;;23.42;;
55328;SDS011;41205;44.264;19.884;2022-12-29T07:29:36;37.75;;;22.83;;
55328;SDS011;41205;44.264;19.884;2022-12-29T07:32:02;32.85;;;22.77;;
55328;SDS011;41205;44.264;19.884;2022-12-29T07:34:28;61.40;;;37.92;;
55328;SDS011;41205;44.264;19.884;2022-12-29T07:36:54;60.72;;;35.90;;
55328;SDS011;41205;44.264;19.884;2022-12-29T07:39:19;198.57;;;118.72;;
55328;SDS011;41205;44.264;19.884;2022-12-29T07:41:45;229.25;;;141.98;;
55328;SDS011;41205;44.264;19.884;2022-12-29T07:44:11;225.75;;;157.57;;
55328;SDS011;41205;44.264;19.884;2022-12-29T07:46:37;281.05;;;187.18;;
55328;SDS011;41205;44.264;19.884;2022-12-29T07:49:02;91.30;;;68.28;;
55328;SDS011;41205;44.264;19.884;2022-12-29T07:51:28;120.20;;;85.50;;
55328;SDS011;41205;44.264;19.884;2022-12-29T07:53:53;100.60;;;65.75;;
55328;SDS011;41205;44.264;19.884;2022-12-29T07:56:19;62.53;;;43.65;;
55328;SDS011;41205;44.264;19.884;2022-12-29T07:58:45;102.30;;;67.57;;
55328;SDS011;41205;44.264;19.884;2022-12-29T08:01:10;70.57;;;46.97;;
55328;SDS011;41205;44.264;19.884;2022-12-29T08:03:36;70.75;;;47.33;;
55328;SDS011;41205;44.264;19.884;2022-12-29T08:06:03;244.77;;;210.30;;
55328;SDS011;41205;44.264;19.884;2022-12-29T08:08:28;199.75;;;134.73;;
55328;SDS011;41205;44.264;19.884;2022-12-29T08:10:54;168.25;;;103.93;;
55328;SDS011;41205;44.264;19.884;2022-12-29T08:13:20;263.40;;;174.05;;
55328;SDS011;41205;44.264;19.884;2022-12-29T08:15:45;348.02;;;248.00;;
55328;SDS011;41205;44.264;19.884;2022-12-29T08:18:11;292.00;;;208.02;;
55328;SDS011;41205;44.264;19.884;2022-12-29T08:20:37;305.15;;;221.45;;
55328;SDS011;41205;44.264;19.884;2022-12-29T08:23:03;333.15;;;232.07;;
55328;SDS011;41205;44.264;19.884;2022-12-29T08:25:28;233.55;;;158.82;;
55328;SDS011;41205;44.264;19.884;2022-12-29T08:27:54;333.55;;;224.60;;
55328;SDS011;41205;44.264;19.884;2022-12-29T08:30:20;354.38;;;243.55;;
55328;SDS011;41205;44.264;19.884;2022-12-29T08:32:45;385.48;;;260.10;;
55328;SDS011;41205;44.264;19.884;2022-12-29T08:35:11;338.58;;;226.50;;
55328;SDS011;41205;44.264;19.884;2022-12-29T08:37:37;193.43;;;130.23;;
55328;SDS011;41205;44.264;19.884;2022-12-29T08:40:03;217.07;;;146.80;;
55328;SDS011;41205;44.264;19.884;2022-12-29T08:42:31;163.02;;;116.25;;
55328;SDS011;41205;44.264;19.884;2022-12-29T08:44:57;229.93;;;159.98;;
55328;SDS011;41205;44.264;19.884;2022-12-29T08:47:23;263.75;;;196.90;;
55328;SDS011;41205;44.264;19.884;2022-12-29T08:49:49;218.60;;;158.82;;
55328;SDS011;41205;44.264;19.884;2022-12-29T08:52:15;194.68;;;133.07;;
55328;SDS011;41205;44.264;19.884;2022-12-29T08:54:40;169.00;;;114.55;;
55328;SDS011;41205;44.264;19.884;2022-12-29T08:57:06;211.35;;;153.57;;
55328;SDS011;41205;44.264;19.884;2022-12-29T08:59:32;411.15;;;305.08;;
55328;SDS011;41205;44.264;19.884;2022-12-29T09:01:57;449.17;;;307.58;;
55328;SDS011;41205;44.264;19.884;2022-12-29T09:04:23;409.17;;;275.67;;
55328;SDS011;41205;44.264;19.884;2022-12-29T09:06:49;376.05;;;250.20;;
55328;SDS011;41205;44.264;19.884;2022-12-29T09:09:15;303.48;;;212.45;;
55328;SDS011;41205;44.264;19.884;2022-12-29T09:11:42;410.38;;;288.00;;
55328;SDS011;41205;44.264;19.884;2022-12-29T09:14:08;462.55;;;344.52;;
55328;SDS011;41205;44.264;19.884;2022-12-29T09:16:34;419.02;;;302.90;;
55328;SDS011;41205;44.264;19.884;2022-12-29T09:19:00;398.30;;;297.42;;
55328;SDS011;41205;44.264;19.884;2022-12-29T09:21:26;344.55;;;256.17;;
55328;SDS011;41205;44.264;19.884;2022-12-29T09:23:51;373.35;;;272.25;;
55328;SDS011;41205;44.264;19.884;2022-12-29T09:26:17;341.75;;;252.32;;
55328;SDS011;41205;44.264;19.884;2022-12-29T09:28:43;267.20;;;193.43;;
55328;SDS011;41205;44.264;19.884;2022-12-29T09:31:09;254.43;;;187.25;;
55328;SDS011;41205;44.264;19.884;2022-12-29T09:33:35;275.58;;;210.15;;
55328;SDS011;41205;44.264;19.884;2022-12-29T09:36:01;292.02;;;210.55;;
55328;SDS011;41205;44.264;19.884;2022-12-29T09:38:28;194.73;;;141.98;;
55328;SDS011;41205;44.264;19.884;2022-12-29T09:46:41;268.85;;;197.02;;
55328;SDS011;41205;44.264;19.884;2022-12-29T09:51:47;229.07;;;173.68;;
55328;SDS011;41205;44.264;19.884;2022-12-29T09:56:51;410.02;;;314.55;;
55328;SDS011;41205;44.264;19.884;2022-12-29T09:59:19;394.58;;;297.30;;
55328;SDS011;41205;44.264;19.884;2022-12-29T10:01:56;336.35;;;263.15;;
55328;SDS011;41205;44.264;19.884;2022-12-29T10:04:29;262.10;;;205.98;;
55328;SDS011;41205;44.264;19.884;2022-12-29T10:09:47;224.80;;;172.80;;
55328;SDS011;41205;44.264;19.884;2022-12-29T10:13:19;225.48;;;169.07;;
55328;SDS011;41205;44.264;19.884;2022-12-29T10:15:54;232.70;;;175.95;;
55328;SDS011;41205;44.264;19.884;2022-12-29T10:21:16;216.63;;;159.85;;
55328;SDS011;41205;44.264;19.884;2022-12-29T10:23:53;162.20;;;117.55;;
55328;SDS011;41205;44.264;19.884;2022-12-29T10:26:26;178.63;;;133.75;;
55328;SDS011;41205;44.264;19.884;2022-12-29T10:31:33;193.60;;;147.25;;
55328;SDS011;41205;44.264;19.884;2022-12-29T10:34:07;190.52;;;141.20;;
55328;SDS011;41205;44.264;19.884;2022-12-29T10:36:45;184.52;;;138.32;;
55328;SDS011;41205;44.264;19.884;2022-12-29T10:39:19;165.65;;;120.18;;
55328;SDS011;41205;44.264;19.884;2022-12-29T10:44:33;162.13;;;117.97;;
55328;SDS011;41205;44.264;19.884;2022-12-29T10:47:01;159.25;;;124.85;;
55328;SDS011;41205;44.264;19.884;2022-12-29T10:49:30;137.23;;;103.05;;
55328;SDS011;41205;44.264;19.884;2022-12-29T10:51:58;160.70;;;118.85;;
55328;SDS011;41205;44.264;19.884;2022-12-29T10:54:36;156.23;;;117.18;;
55328;SDS011;41205;44.264;19.884;2022-12-29T10:57:11;155.53;;;114.43;;
55328;SDS011;41205;44.264;19.884;2022-12-29T10:59:38;131.10;;;105.22;;
55328;SDS011;41205;44.264;19.884;2022-12-29T11:07:04;137.15;;;97.22;;
55328;SDS011;41205;44.264;19.884;2022-12-29T11:09:32;137.43;;;99.53;;
55328;SDS011;41205;44.264;19.884;2022-12-29T11:12:05;133.95;;;95.00;;
55328;SDS011;41205;44.264;19.884;2022-12-29T11:14:44;142.27;;;102.40;;
55328;SDS011;41205;44.264;19.884;2022-12-29T11:17:12;142.02;;;95.25;;
55328;SDS011;41205;44.264;19.884;2022-12-29T11:19:41;117.95;;;80.63;;
55328;SDS011;41205;44.264;19.884;2022-12-29T11:22:12;100.57;;;69.55;;
55328;SDS011;41205;44.264;19.884;2022-12-29T11:24:43;106.25;;;72.22;;
55328;SDS011;41205;44.264;19.884;2022-12-29T11:27:14;85.35;;;57.38;;
55328;SDS011;41205;44.264;19.884;2022-12-29T11:29:42;121.90;;;78.70;;
55328;SDS011;41205;44.264;19.884;2022-12-29T11:32:11;91.35;;;61.30;;
55328;SDS011;41205;44.264;19.884;2022-12-29T11:34:42;118.80;;;83.20;;
55328;SDS011;41205;44.264;19.884;2022-12-29T11:37:12;107.50;;;82.57;;
55328;SDS011;41205;44.264;19.884;2022-12-29T11:40:05;147.27;;;111.88;;
55328;SDS011;41205;44.264;19.884;2022-12-29T11:42:41;151.57;;;123.18;;
55328;SDS011;41205;44.264;19.884;2022-12-29T11:45:38;153.55;;;117.05;;
55328;SDS011;41205;44.264;19.884;2022-12-29T11:48:18;145.23;;;107.13;;
55328;SDS011;41205;44.264;19.884;2022-12-29T11:50:54;143.13;;;105.05;;
55328;SDS011;41205;44.264;19.884;2022-12-29T11:53:32;146.48;;;116.53;;
55328;SDS011;41205;44.264;19.884;2022-12-29T11:56:12;143.65;;;111.43;;
55328;SDS011;41205;44.264;19.884;2022-12-29T11:58:41;115.15;;;86.63;;
55328;SDS011;41205;44.264;19.884;2022-12-29T12:03:34;109.60;;;89.28;;
55328;SDS011;41205;44.264;19.884;2022-12-29T12:06:03;277.60;;;214.02;;
55328;SDS011;41205;44.264;19.884;2022-12-29T12:11:25;120.97;;;80.63;;
55328;SDS011;41205;44.264;19.884;2022-12-29T12:16:54;103.38;;;69.15;;
55328;SDS011;41205;44.264;19.884;2022-12-29T12:22:41;85.35;;;56.30;;
55328;SDS011;41205;44.264;19.884;2022-12-29T12:25:19;112.47;;;68.60;;
55328;SDS011;41205;44.264;19.884;2022-12-29T12:27:49;133.57;;;92.55;;
55328;SDS011;41205;44.264;19.884;2022-12-29T12:30:23;92.47;;;57.97;;
55328;SDS011;41205;44.264;19.884;2022-12-29T12:32:52;56.78;;;40.25;;
55328;SDS011;41205;44.264;19.884;2022-12-29T12:35:38;53.03;;;39.92;;
55328;SDS011;41205;44.264;19.884;2022-12-29T12:38:38;86.43;;;58.83;;
55328;SDS011;41205;44.264;19.884;2022-12-29T12:41:17;49.85;;;34.70;;
55328;SDS011;41205;44.264;19.884;2022-12-29T12:52:08;61.10;;;44.63;;
55328;SDS011;41205;44.264;19.884;2022-12-29T13:03:32;162.43;;;112.20;;
55328;SDS011;41205;44.264;19.884;2022-12-29T13:17:32;132.48;;;90.35;;
55328;SDS011;41205;44.264;19.884;2022-12-29T13:20:30;124.43;;;83.22;;
55328;SDS011;41205;44.264;19.884;2022-12-29T13:25:47;123.47;;;87.10;;
55328;SDS011;41205;44.264;19.884;2022-12-29T13:28:29;84.43;;;62.15;;
55328;SDS011;41205;44.264;19.884;2022-12-29T13:39:34;110.80;;;73.82;;
55328;SDS011;41205;44.264;19.884;2022-12-29T13:42:03;105.07;;;72.82;;
55328;SDS011;41205;44.264;19.884;2022-12-29T13:47:02;122.85;;;81.78;;
55328;SDS011;41205;44.264;19.884;2022-12-29T13:49:50;136.35;;;93.22;;
55328;SDS011;41205;44.264;19.884;2022-12-29T13:55:34;135.38;;;92.45;;
55328;SDS011;41205;44.264;19.884;2022-12-29T13:58:24;132.30;;;98.47;;
55328;SDS011;41205;44.264;19.884;2022-12-29T14:00:58;166.98;;;133.38;;
55328;SDS011;41205;44.264;19.884;2022-12-29T14:08:52;142.98;;;105.25;;
55328;SDS011;41205;44.264;19.884;2022-12-29T14:11:21;148.70;;;109.13;;
55328;SDS011;41205;44.264;19.884;2022-12-29T14:13:49;171.88;;;128.85;;
55328;SDS011;41205;44.264;19.884;2022-12-29T14:16:32;154.50;;;108.95;;
55328;SDS011;41205;44.264;19.884;2022-12-29T14:21:52;146.60;;;99.97;;
55328;SDS011;41205;44.264;19.884;2022-12-29T14:24:37;125.75;;;90.88;;
55328;SDS011;41205;44.264;19.884;2022-12-29T14:35:00;198.20;;;147.88;;
55328;SDS011;41205;44.264;19.884;2022-12-29T14:38:05;190.68;;;152.65;;
55328;SDS011;41205;44.264;19.884;2022-12-29T14:40:32;244.13;;;182.73;;
55328;SDS011;41205;44.264;19.884;2022-12-29T14:42:59;202.00;;;157.15;;
55328;SDS011;41205;44.264;19.884;2022-12-29T14:45:28;163.75;;;120.10;;
55328;SDS011;41205;44.264;19.884;2022-12-29T14:47:57;167.97;;;121.53;;
55328;SDS011;41205;44.264;19.884;2022-12-29T14:50:45;157.77;;;122.70;;
55328;SDS011;41205;44.264;19.884;2022-12-29T14:56:09;177.77;;;139.15;;
55328;SDS011;41205;44.264;19.884;2022-12-29T14:58:50;164.00;;;132.90;;
55328;SDS011;41205;44.264;19.884;2022-12-29T15:01:40;164.15;;;131.57;;
55328;SDS011;41205;44.264;19.884;2022-12-29T15:07:00;144.80;;;110.15;;
55328;SDS011;41205;44.264;19.884;2022-12-29T15:14:55;159.23;;;120.95;;
55328;SDS011;41205;44.264;19.884;2022-12-29T15:19:58;188.15;;;137.93;;
55328;SDS011;41205;44.264;19.884;2022-12-29T15:22:25;176.85;;;126.80;;
55328;SDS011;41205;44.264;19.884;2022-12-29T15:24:53;196.68;;;149.40;;
55328;SDS011;41205;44.264;19.884;2022-12-29T15:27:23;238.77;;;180.25;;
55328;SDS011;41205;44.264;19.884;2022-12-29T15:29:58;218.15;;;176.50;;
55328;SDS011;41205;44.264;19.884;2022-12-29T15:32:27;154.93;;;125.25;;
55328;SDS011;41205;44.264;19.884;2022-12-29T15:34:57;219.65;;;176.57;;
55328;SDS011;41205;44.264;19.884;2022-12-29T15:37:31;224.95;;;182.07;;
55328;SDS011;41205;44.264;19.884;2022-12-29T15:40:00;177.52;;;149.65;;
55328;SDS011;41205;44.264;19.884;2022-12-29T15:45:04;547.55;;;383.45;;
55328;SDS011;41205;44.264;19.884;2022-12-29T15:47:32;910.67;;;587.45;;
55328;SDS011;41205;44.264;19.884;2022-12-29T15:50:02;1086.38;;;672.70;;
55328;SDS011;41205;44.264;19.884;2022-12-29T15:52:38;842.70;;;570.17;;
55328;SDS011;41205;44.264;19.884;2022-12-29T15:55:04;752.72;;;536.20;;
55328;SDS011;41205;44.264;19.884;2022-12-29T15:57:36;688.67;;;496.48;;
55328;SDS011;41205;44.264;19.884;2022-12-29T16:00:26;731.53;;;528.45;;
55328;SDS011;41205;44.264;19.884;2022-12-29T16:02:55;572.42;;;403.50;;
55328;SDS011;41205;44.264;19.884;2022-12-29T16:05:24;498.40;;;360.33;;
55328;SDS011;41205;44.264;19.884;2022-12-29T16:07:58;353.15;;;252.75;;
55328;SDS011;41205;44.264;19.884;2022-12-29T16:10:45;123.75;;;89.32;;
55328;SDS011;41205;44.264;19.884;2022-12-29T16:15:46;76.43;;;59.97;;
55328;SDS011;41205;44.264;19.884;2022-12-29T16:18:19;69.65;;;59.65;;
55328;SDS011;41205;44.264;19.884;2022-12-29T16:20:52;53.50;;;45.80;;
55328;SDS011;41205;44.264;19.884;2022-12-29T16:23:21;44.08;;;34.25;;
55328;SDS011;41205;44.264;19.884;2022-12-29T16:25:49;46.55;;;34.88;;
55328;SDS011;41205;44.264;19.884;2022-12-29T16:28:23;55.72;;;42.30;;
55328;SDS011;41205;44.264;19.884;2022-12-29T16:31:03;53.67;;;42.55;;
55328;SDS011;41205;44.264;19.884;2022-12-29T16:41:59;80.82;;;56.55;;
55328;SDS011;41205;44.264;19.884;2022-12-29T16:44:29;115.32;;;83.03;;
55328;SDS011;41205;44.264;19.884;2022-12-29T16:46:57;132.68;;;98.95;;
55328;SDS011;41205;44.264;19.884;2022-12-29T16:49:25;92.45;;;64.53;;
55328;SDS011;41205;44.264;19.884;2022-12-29T16:51:52;146.73;;;102.47;;
55328;SDS011;41205;44.264;19.884;2022-12-29T16:54:24;158.68;;;113.90;;
55328;SDS011;41205;44.264;19.884;2022-12-29T16:57:01;152.77;;;106.97;;
55328;SDS011;41205;44.264;19.884;2022-12-29T16:59:31;81.95;;;61.65;;
55328;SDS011;41205;44.264;19.884;2022-12-29T17:01:59;93.38;;;66.90;;